Time;durP1;ratioP1;P1;durP2;ratioP2;P2;SDS_P1;SDS_P2;PMS_P1;PMS_P2;Temp;Humidity;BMP_temperature;BMP_pressure;BME280_temperature;BME280_humidity;BME280_pressure;Samples;Min_cycle;Max_cycle;Signal;HPM_P1;HPM_P2
2021/04/26 00:01:42;;;;;;;2.03;1.05;;;1.90;99.90;;;;;;4938071;29;20244;-70
2021/04/26 00:04:11;;;;;;;0.90;0.63;;;1.80;99.90;;;;;;4938189;29;20533;-68
2021/04/26 00:06:38;;;;;;;1.40;1.17;;;1.80;99.90;;;;;;4938119;29;20210;-67
2021/04/26 00:09:06;;;;;;;3.05;1.00;;;1.80;99.90;;;;;;4939893;29;20233;-71
2021/04/26 00:11:33;;;;;;;1.00;0.73;;;1.70;99.90;;;;;;4941304;29;20725;-69
2021/04/26 00:14:00;;;;;;;1.10;0.70;;;1.70;99.90;;;;;;4941157;29;20204;-67
2021/04/26 00:16:27;;;;;;;4.95;1.48;;;1.70;99.90;;;;;;4940577;29;20173;-70
2021/04/26 00:18:55;;;;;;;1.20;0.90;;;1.60;99.90;;;;;;4939829;29;20275;-68
2021/04/26 00:21:23;;;;;;;1.48;0.80;;;1.50;99.90;;;;;;4940227;29;20173;-70
2021/04/26 00:23:50;;;;;;;2.20;1.35;;;1.60;99.90;;;;;;4940415;29;20234;-71
2021/04/26 00:26:17;;;;;;;0.90;0.60;;;1.60;99.90;;;;;;4919181;29;20205;-69
2021/04/26 00:28:44;;;;;;;2.53;1.42;;;1.50;99.90;;;;;;4920302;29;20212;-70
2021/04/26 00:31:12;;;;;;;1.73;1.20;;;1.50;99.90;;;;;;4921299;29;20306;-68
2021/04/26 00:33:40;;;;;;;3.55;0.93;;;1.50;99.90;;;;;;4990625;23;20235;-68
2021/04/26 00:36:09;;;;;;;1.08;0.95;;;1.50;99.90;;;;;;4957769;28;20723;-65
2021/04/26 00:38:37;;;;;;;1.90;0.90;;;1.50;99.90;;;;;;4956428;28;20254;-63
2021/04/26 00:41:04;;;;;;;4.00;1.08;;;1.50;99.90;;;;;;4956731;28;20193;-65
2021/04/26 00:43:31;;;;;;;4.93;1.00;;;1.50;99.90;;;;;;4957369;28;20192;-65
2021/04/26 00:45:59;;;;;;;1.80;1.00;;;1.40;99.90;;;;;;4957287;28;20181;-65
2021/04/26 00:48:26;;;;;;;2.10;0.80;;;1.50;99.90;;;;;;4957766;28;20200;-68
2021/04/26 00:50:53;;;;;;;1.20;0.63;;;1.50;99.90;;;;;;4960485;28;20188;-68
2021/04/26 00:53:21;;;;;;;0.95;0.70;;;1.40;99.90;;;;;;4958577;29;20215;-68
2021/04/26 00:55:49;;;;;;;1.70;1.58;;;1.40;99.90;;;;;;4957477;28;20192;-68
2021/04/26 00:58:17;;;;;;;0.90;0.80;;;1.40;99.90;;;;;;4955701;28;20303;-66
2021/04/26 01:00:45;;;;;;;2.30;1.08;;;1.30;99.90;;;;;;4956089;28;20196;-69
2021/04/26 01:03:12;;;;;;;1.98;0.80;;;1.20;99.90;;;;;;4957501;28;20176;-68
2021/04/26 01:05:40;;;;;;;2.25;1.17;;;1.10;99.90;;;;;;4955675;29;20255;-69
2021/04/26 01:08:08;;;;;;;0.90;0.80;;;1.10;99.90;;;;;;4955230;29;20212;-70
2021/04/26 01:10:57;;;;;;;1.55;0.70;;;1.10;99.90;;;;;;4956627;29;20196;-69
2021/04/26 01:13:37;;;;;;;1.67;1.58;;;1.10;99.90;;;;;;4956077;28;20192;-68
2021/04/26 01:16:12;;;;;;;2.28;0.70;;;1.10;99.90;;;;;;4955498;29;20207;-69
2021/04/26 01:18:48;;;;;;;1.75;1.55;;;1.10;99.90;;;;;;4956067;28;20212;-68
2021/04/26 01:21:53;;;;;;;1.45;1.35;;;1.00;99.90;;;;;;4955561;28;20180;-68
2021/04/26 01:24:51;;;;;;;2.60;0.90;;;1.00;99.90;;;;;;4955606;28;20254;-69
2021/04/26 01:27:36;;;;;;;1.13;0.90;;;1.00;99.90;;;;;;4953889;29;20645;-68
2021/04/26 01:30:11;;;;;;;2.13;0.90;;;1.10;99.90;;;;;;4955434;28;20625;-69
2021/04/26 01:33:01;;;;;;;0.90;0.77;;;1.10;99.90;;;;;;4955392;29;20663;-67
2021/04/26 01:35:33;;;;;;;2.25;1.15;;;1.00;99.90;;;;;;4954486;29;20215;-65
2021/04/26 01:38:03;;;;;;;0.90;0.70;;;1.00;99.90;;;;;;4954420;29;20399;-65
2021/04/26 01:40:31;;;;;;;3.67;1.38;;;1.10;99.90;;;;;;4955367;28;20620;-67
2021/04/26 01:43:00;;;;;;;5.35;1.42;;;1.10;99.90;;;;;;4955015;28;20275;-69
2021/04/26 01:45:28;;;;;;;2.33;1.00;;;1.10;99.90;;;;;;4953887;29;20192;-68
2021/04/26 01:47:58;;;;;;;2.95;1.13;;;1.20;99.90;;;;;;4954909;28;20211;-68
2021/04/26 01:50:31;;;;;;;1.45;1.17;;;1.20;99.90;;;;;;4953635;29;20635;-68
2021/04/26 01:53:00;;;;;;;1.40;1.15;;;1.20;99.90;;;;;;4954781;28;20208;-69
2021/04/26 01:55:27;;;;;;;3.25;1.80;;;1.20;99.90;;;;;;4953539;28;20188;-65
2021/04/26 01:57:57;;;;;;;0.90;0.80;;;1.20;99.90;;;;;;4954649;28;20681;-65
2021/04/26 02:00:28;;;;;;;3.55;1.10;;;1.20;99.90;;;;;;4953539;29;20192;-65
2021/04/26 02:03:03;;;;;;;1.13;0.88;;;1.20;99.90;;;;;;4955499;28;20191;-65
2021/04/26 02:05:41;;;;;;;1.80;0.90;;;1.10;99.90;;;;;;4954217;29;20199;-66
2021/04/26 02:08:13;;;;;;;1.65;1.33;;;1.00;99.90;;;;;;4953702;29;20651;-64
2021/04/26 02:10:42;;;;;;;3.55;0.93;;;1.00;99.90;;;;;;4954897;28;20200;-66
2021/04/26 02:13:14;;;;;;;0.93;0.75;;;1.00;99.90;;;;;;4953719;28;20191;-65
2021/04/26 02:15:45;;;;;;;1.52;1.15;;;0.90;99.90;;;;;;4953502;29;20196;-65
2021/04/26 02:18:13;;;;;;;1.90;1.10;;;1.00;99.90;;;;;;4955034;28;20212;-67
2021/04/26 02:20:40;;;;;;;1.65;1.48;;;0.90;99.90;;;;;;4953875;28;20192;-67
2021/04/26 02:23:11;;;;;;;3.50;1.08;;;0.90;99.90;;;;;;4955311;28;20486;-67
2021/04/26 02:25:38;;;;;;;1.27;0.95;;;0.90;99.90;;;;;;4955005;28;20534;-67
2021/04/26 02:28:05;;;;;;;3.03;2.15;;;0.90;99.90;;;;;;4953666;29;20208;-69
2021/04/26 02:30:32;;;;;;;1.50;1.10;;;0.90;99.90;;;;;;4954840;28;20665;-68
2021/04/26 02:33:04;;;;;;;1.20;0.70;;;0.90;99.90;;;;;;4954886;28;20196;-67
2021/04/26 02:35:39;;;;;;;2.10;1.08;;;0.90;99.90;;;;;;4955423;28;20228;-67
2021/04/26 02:38:09;;;;;;;1.60;1.10;;;0.80;99.90;;;;;;4954891;28;20299;-67
2021/04/26 02:40:40;;;;;;;5.90;2.28;;;0.80;99.90;;;;;;4953604;28;20242;-68
2021/04/26 02:43:09;;;;;;;1.55;0.75;;;0.80;99.90;;;;;;4955262;28;20703;-68
2021/04/26 02:45:45;;;;;;;2.58;1.52;;;0.70;99.90;;;;;;4955296;28;20251;-67
2021/04/26 02:48:13;;;;;;;0.90;0.80;;;0.60;99.90;;;;;;4954849;28;20234;-67
2021/04/26 02:50:46;;;;;;;2.20;1.00;;;0.60;99.90;;;;;;4953654;29;20184;-68
2021/04/26 02:53:16;;;;;;;2.60;1.08;;;0.60;99.90;;;;;;4953372;29;20541;-69
2021/04/26 02:55:46;;;;;;;2.58;1.10;;;0.60;99.90;;;;;;4953255;29;20188;-67
2021/04/26 02:58:15;;;;;;;2.50;1.20;;;0.70;99.90;;;;;;4953354;28;20212;-67
2021/04/26 03:00:44;;;;;;;1.42;0.90;;;0.60;99.90;;;;;;4955480;28;20198;-67
2021/04/26 03:03:31;;;;;;;8.40;1.05;;;0.60;99.90;;;;;;4955020;29;20212;-68
2021/04/26 03:06:05;;;;;;;4.90;1.27;;;0.50;99.90;;;;;;4953265;29;20564;-68
2021/04/26 03:08:39;;;;;;;5.57;1.15;;;0.50;99.90;;;;;;4953421;29;20219;-68
2021/04/26 03:11:07;;;;;;;1.60;1.35;;;0.50;99.90;;;;;;4954555;28;20176;-67
2021/04/26 03:13:37;;;;;;;2.75;0.80;;;0.50;99.90;;;;;;4953640;28;20236;-68
2021/04/26 03:16:06;;;;;;;1.25;0.88;;;0.50;99.90;;;;;;4953136;29;20285;-67
2021/04/26 03:18:36;;;;;;;2.90;1.52;;;0.40;99.90;;;;;;4952945;28;20223;-68
2021/04/26 03:21:07;;;;;;;1.60;1.05;;;0.40;99.90;;;;;;4954806;28;20239;-67
2021/04/26 03:23:36;;;;;;;0.80;0.60;;;0.40;99.90;;;;;;4953130;29;20199;-67
2021/04/26 03:26:06;;;;;;;1.55;0.82;;;0.40;99.90;;;;;;4954642;28;20499;-68
2021/04/26 03:28:35;;;;;;;1.10;0.85;;;0.30;99.90;;;;;;4954714;28;20239;-66
2021/04/26 03:31:04;;;;;;;2.45;1.23;;;0.30;99.90;;;;;;4953069;28;20204;-66
2021/04/26 03:33:47;;;;;;;1.88;1.50;;;0.20;99.90;;;;;;4952888;29;20196;-66
2021/04/26 03:36:17;;;;;;;1.83;1.23;;;0.20;99.90;;;;;;4953417;29;20223;-69
2021/04/26 03:38:45;;;;;;;1.65;1.10;;;0.20;99.90;;;;;;4952633;28;20239;-68
2021/04/26 03:41:14;;;;;;;3.13;1.50;;;0.10;99.90;;;;;;4952844;29;20294;-67
2021/04/26 03:43:43;;;;;;;1.10;0.90;;;0.10;99.90;;;;;;4956037;28;20176;-68
2021/04/26 03:46:12;;;;;;;1.30;0.82;;;0.10;99.90;;;;;;4957853;28;20296;-68
2021/04/26 03:49:05;;;;;;;1.50;1.40;;;0.20;99.90;;;;;;4957648;29;20824;-68
2021/04/26 03:51:54;;;;;;;1.35;1.13;;;0.10;99.90;;;;;;4956276;29;20211;-67
2021/04/26 03:54:56;;;;;;;2.03;1.30;;;0.10;99.90;;;;;;4957864;28;20564;-66
2021/04/26 03:57:23;;;;;;;2.65;1.08;;;0.10;99.90;;;;;;4956548;29;20220;-67
2021/04/26 03:59:51;;;;;;;1.45;1.30;;;0.20;99.90;;;;;;4956458;28;20216;-67
2021/04/26 04:02:18;;;;;;;1.88;1.58;;;0.20;99.90;;;;;;4958021;28;20192;-67
2021/04/26 04:04:47;;;;;;;1.48;1.02;;;0.30;99.90;;;;;;4957759;28;20271;-67
2021/04/26 04:07:33;;;;;;;2.33;1.30;;;0.70;99.90;;;;;;4957284;29;20351;-68
2021/04/26 04:10:30;;;;;;;1.05;0.95;;;1.30;99.90;;;;;;4921738;28;20417;-67
2021/04/26 04:13:17;;;;;;;2.28;0.75;;;2.20;99.90;;;;;;4957339;28;20246;-67
2021/04/26 04:15:45;;;;;;;2.25;1.15;;;3.30;99.90;;;;;;4956156;29;20219;-68
2021/04/26 04:18:18;;;;;;;1.70;1.15;;;4.20;99.90;;;;;;4955930;28;20231;-66
2021/04/26 04:20:47;;;;;;;8.07;1.05;;;4.80;99.90;;;;;;4956232;29;20192;-68
2021/04/26 04:23:15;;;;;;;1.10;1.00;;;5.70;99.90;;;;;;4956188;29;20196;-68
2021/04/26 04:25:43;;;;;;;1.10;0.82;;;6.20;99.90;;;;;;4955820;28;20275;-68
2021/04/26 04:28:10;;;;;;;2.55;1.35;;;6.70;99.90;;;;;;4955432;29;20287;-67
2021/04/26 04:30:39;;;;;;;2.55;1.33;;;7.40;99.90;;;;;;4956307;29;20200;-67
2021/04/26 04:33:42;;;;;;;0.90;0.80;;;8.00;99.90;;;;;;4946880;28;20282;-68
2021/04/26 04:36:29;;;;;;;2.88;1.33;;;8.40;99.90;;;;;;4956832;28;20198;-68
2021/04/26 04:39:32;;;;;;;1.52;0.90;;;9.00;99.90;;;;;;4915989;29;20317;-67
2021/04/26 04:42:21;;;;;;;3.88;1.15;;;9.00;99.90;;;;;;4953600;29;20216;-67
2021/04/26 04:44:49;;;;;;;2.20;1.35;;;9.50;99.90;;;;;;4955384;29;20191;-66
2021/04/26 04:47:16;;;;;;;3.67;1.35;;;9.60;99.90;;;;;;4956826;28;20195;-68
2021/04/26 04:49:44;;;;;;;1.20;0.82;;;9.20;99.90;;;;;;4956805;28;20507;-68
2021/04/26 04:52:11;;;;;;;1.50;1.05;;;9.70;99.90;;;;;;4939265;29;20632;-66
2021/04/26 04:54:40;;;;;;;1.27;0.90;;;10.30;99.90;;;;;;4936046;29;20197;-68
2021/04/26 04:57:08;;;;;;;1.50;0.90;;;10.70;99.90;;;;;;4935788;29;20196;-68
2021/04/26 04:59:39;;;;;;;1.40;1.30;;;10.50;99.90;;;;;;4935971;29;20756;-68
2021/04/26 05:02:15;;;;;;;1.63;1.10;;;11.10;99.90;;;;;;4936043;29;20279;-68
2021/04/26 05:05:00;;;;;;;2.00;1.15;;;10.60;99.90;;;;;;4937024;29;20200;-68
2021/04/26 05:07:46;;;;;;;1.48;1.10;;;10.60;99.90;;;;;;4936730;29;20268;-68
2021/04/26 05:10:33;;;;;;;1.90;1.33;;;10.80;99.90;;;;;;4937139;29;20176;-67
2021/04/26 05:13:26;;;;;;;2.75;0.98;;;10.70;99.90;;;;;;4915738;29;20212;-68
2021/04/26 05:16:00;;;;;;;1.27;1.00;;;10.90;99.90;;;;;;4916742;29;20240;-68
2021/04/26 05:18:28;;;;;;;2.33;1.52;;;9.50;99.90;;;;;;4916448;29;20607;-68
2021/04/26 05:20:56;;;;;;;1.45;1.00;;;7.50;99.90;;;;;;4937230;29;20203;-67
2021/04/26 05:23:24;;;;;;;1.48;0.73;;;5.80;99.90;;;;;;4936511;29;20185;-67
2021/04/26 05:25:53;;;;;;;1.63;1.30;;;4.50;99.90;;;;;;4935620;29;20224;-68
2021/04/26 05:28:22;;;;;;;1.83;1.73;;;3.90;99.90;;;;;;4935518;29;20217;-69
2021/04/26 05:30:54;;;;;;;3.03;1.20;;;3.70;99.90;;;;;;4935462;29;20201;-66
2021/04/26 05:33:23;;;;;;;2.80;1.48;;;3.30;99.90;;;;;;4948966;29;20215;-67
2021/04/26 05:35:56;;;;;;;1.10;0.88;;;3.30;99.90;;;;;;4955936;28;20176;-67
2021/04/26 05:38:33;;;;;;;4.03;1.00;;;3.20;99.90;;;;;;4955113;29;20220;-68
2021/04/26 05:41:06;;;;;;;1.63;1.38;;;3.30;99.90;;;;;;4956237;28;20272;-67
2021/04/26 05:43:33;;;;;;;7.22;1.88;;;3.30;99.90;;;;;;4955168;29;20202;-67
2021/04/26 05:46:00;;;;;;;2.25;1.10;;;3.30;99.90;;;;;;4955062;28;20247;-68
2021/04/26 05:48:30;;;;;;;1.60;1.05;;;3.30;99.90;;;;;;4956603;28;20257;-68
2021/04/26 05:50:58;;;;;;;3.25;1.80;;;3.40;99.90;;;;;;4956710;28;20173;-68
2021/04/26 05:53:25;;;;;;;5.15;1.23;;;3.40;99.90;;;;;;4956680;28;20232;-68
2021/04/26 05:55:52;;;;;;;2.10;1.27;;;3.60;99.90;;;;;;4955401;29;20216;-68
2021/04/26 05:58:21;;;;;;;1.00;0.80;;;3.60;99.90;;;;;;4938790;28;20709;-68
2021/04/26 06:00:48;;;;;;;1.65;0.82;;;3.60;99.90;;;;;;4937820;29;20195;-67
2021/04/26 06:03:15;;;;;;;2.88;1.92;;;3.70;99.90;;;;;;4938724;29;20195;-67
2021/04/26 06:05:42;;;;;;;7.43;1.67;;;3.90;99.90;;;;;;4923954;29;20278;-68
2021/04/26 06:08:14;;;;;;;2.70;1.48;;;4.00;99.90;;;;;;4955063;28;20216;-69
2021/04/26 06:10:41;;;;;;;2.80;1.30;;;4.10;99.90;;;;;;4955321;28;20176;-68
2021/04/26 06:13:08;;;;;;;1.90;1.55;;;4.20;99.90;;;;;;4955216;28;20184;-68
2021/04/26 06:15:36;;;;;;;4.05;2.85;;;4.20;99.90;;;;;;4954989;28;20696;-67
2021/04/26 06:18:11;;;;;;;20.00;12.73;;;4.30;99.90;;;;;;4954979;28;20267;-68
2021/04/26 06:20:39;;;;;;;0.98;0.85;;;4.40;99.90;;;;;;4954055;28;20199;-68
2021/04/26 06:23:07;;;;;;;8.38;4.75;;;4.50;99.90;;;;;;4955339;28;20808;-68
2021/04/26 06:25:36;;;;;;;7.00;6.32;;;4.70;99.90;;;;;;4955146;28;20200;-67
2021/04/26 06:28:04;;;;;;;2.78;2.58;;;4.80;99.90;;;;;;4953678;28;20227;-67
2021/04/26 06:30:31;;;;;;;3.53;1.30;;;4.90;99.90;;;;;;4955103;28;20176;-68
2021/04/26 06:32:59;;;;;;;5.13;1.52;;;5.00;99.90;;;;;;4953141;28;20200;-66
2021/04/26 06:35:27;;;;;;;1.23;1.00;;;5.10;99.90;;;;;;4935262;29;20193;-65
2021/04/26 06:37:55;;;;;;;2.78;0.98;;;5.20;99.90;;;;;;4935325;29;20204;-65
2021/04/26 06:40:23;;;;;;;5.00;0.93;;;5.20;99.90;;;;;;4935318;29;20205;-64
2021/04/26 06:42:50;;;;;;;1.90;1.00;;;5.30;99.90;;;;;;4935059;29;20709;-65
2021/04/26 06:45:21;;;;;;;1.80;1.70;;;5.40;99.90;;;;;;4935252;29;20179;-68
2021/04/26 06:47:49;;;;;;;1.35;0.85;;;5.40;99.90;;;;;;4934601;29;20212;-66
2021/04/26 06:50:18;;;;;;;1.30;0.70;;;5.40;99.90;;;;;;4933701;29;20280;-66
2021/04/26 06:52:46;;;;;;;7.00;1.13;;;5.50;99.90;;;;;;4934545;29;20181;-65
2021/04/26 06:55:14;;;;;;;1.25;0.93;;;5.60;99.90;;;;;;4933838;29;20239;-65
2021/04/26 06:57:41;;;;;;;1.60;0.70;;;5.60;99.90;;;;;;4935152;29;20212;-65
2021/04/26 07:00:10;;;;;;;3.60;1.00;;;5.60;99.90;;;;;;4933580;29;20283;-66
2021/04/26 07:02:38;;;;;;;1.00;0.70;;;5.70;99.90;;;;;;4935133;29;20550;-64
2021/04/26 07:05:08;;;;;;;2.08;0.80;;;5.60;99.90;;;;;;4934877;29;20196;-68
2021/04/26 07:07:37;;;;;;;1.33;0.70;;;5.70;99.90;;;;;;4933651;29;20235;-66
2021/04/26 07:10:05;;;;;;;0.90;0.60;;;5.60;99.90;;;;;;4934539;29;20177;-68
2021/04/26 07:12:33;;;;;;;1.52;0.90;;;5.80;99.90;;;;;;4934714;29;20557;-66
2021/04/26 07:15:01;;;;;;;1.30;0.90;;;5.90;99.90;;;;;;4934915;29;20185;-67
2021/04/26 07:17:28;;;;;;;1.15;0.70;;;6.10;99.90;;;;;;4937257;29;20244;-66
2021/04/26 07:19:55;;;;;;;3.30;1.02;;;6.10;99.90;;;;;;4939096;29;20205;-68
2021/04/26 07:22:23;;;;;;;4.63;3.40;;;6.10;99.90;;;;;;4938363;29;20203;-67
2021/04/26 07:24:53;;;;;;;1.40;0.70;;;6.20;99.90;;;;;;4939215;29;20189;-70
2021/04/26 07:27:20;;;;;;;0.90;0.80;;;6.20;99.90;;;;;;4952386;29;20180;-66
2021/04/26 07:29:47;;;;;;;1.10;0.90;;;6.30;99.90;;;;;;4957627;29;20196;-69
2021/04/26 07:32:15;;;;;;;1.73;1.00;;;6.50;99.90;;;;;;4958306;29;20200;-69
2021/04/26 07:34:42;;;;;;;1.00;0.70;;;6.70;99.90;;;;;;4958167;28;20268;-70
2021/04/26 07:37:09;;;;;;;1.50;0.90;;;6.60;99.90;;;;;;4941737;28;20240;-67
2021/04/26 07:39:37;;;;;;;0.93;0.60;;;6.40;99.90;;;;;;4936809;29;20212;-65
2021/04/26 07:42:07;;;;;;;1.10;0.70;;;6.50;99.90;;;;;;4938657;29;20285;-69
2021/04/26 07:44:34;;;;;;;0.90;0.52;;;6.60;99.90;;;;;;4938885;29;20178;-67
2021/04/26 07:47:02;;;;;;;3.92;1.55;;;6.90;99.90;;;;;;4938564;29;20181;-69
2021/04/26 07:49:31;;;;;;;3.17;0.68;;;7.10;99.90;;;;;;4937069;29;20252;-67
2021/04/26 07:52:01;;;;;;;1.23;1.05;;;7.00;99.90;;;;;;4939187;29;20631;-71
2021/04/26 07:54:29;;;;;;;1.00;0.70;;;6.90;99.90;;;;;;4938421;29;20185;-69
2021/04/26 07:56:56;;;;;;;7.53;0.80;;;6.90;99.90;;;;;;4938387;29;20204;-69
2021/04/26 07:59:24;;;;;;;1.20;0.70;;;6.80;99.90;;;;;;4937794;29;20213;-69
2021/04/26 08:01:51;;;;;;;2.17;1.10;;;6.80;99.90;;;;;;4937902;29;20197;-67
2021/04/26 08:04:18;;;;;;;1.00;0.70;;;6.90;99.90;;;;;;4938226;29;20264;-68
2021/04/26 08:06:45;;;;;;;3.53;0.68;;;7.10;99.90;;;;;;4932760;29;20196;-68
2021/04/26 08:09:12;;;;;;;1.90;1.27;;;7.40;99.90;;;;;;4957343;28;20200;-68
2021/04/26 08:11:39;;;;;;;1.00;0.80;;;7.00;99.90;;;;;;4941784;28;20185;-67
2021/04/26 08:14:06;;;;;;;1.13;0.70;;;7.10;99.90;;;;;;4938294;29;20690;-69
2021/04/26 08:16:35;;;;;;;0.80;0.70;;;7.30;99.90;;;;;;4938153;29;20186;-68
2021/04/26 08:19:02;;;;;;;1.17;0.82;;;7.50;99.90;;;;;;4937823;29;20212;-68
2021/04/26 08:21:29;;;;;;;1.30;0.55;;;7.50;99.90;;;;;;4937871;29;20200;-67
2021/04/26 08:23:57;;;;;;;1.90;1.30;;;7.60;99.90;;;;;;4937667;29;20684;-66
2021/04/26 08:26:25;;;;;;;1.30;0.90;;;7.50;99.90;;;;;;4937156;29;20192;-67
2021/04/26 08:28:53;;;;;;;1.15;0.55;;;7.10;99.90;;;;;;4936169;29;20215;-65
2021/04/26 08:31:20;;;;;;;1.75;0.77;;;7.30;99.90;;;;;;4936494;29;20188;-66
2021/04/26 08:33:48;;;;;;;1.02;0.75;;;7.50;99.90;;;;;;4936486;29;20244;-66
2021/04/26 08:36:16;;;;;;;4.93;1.02;;;7.60;99.90;;;;;;4936790;29;20196;-66
2021/04/26 08:38:43;;;;;;;1.25;0.90;;;7.60;99.90;;;;;;4936817;29;20208;-66
2021/04/26 08:41:13;;;;;;;1.30;0.80;;;7.80;99.90;;;;;;4936906;29;20212;-70
2021/04/26 08:43:41;;;;;;;1.13;0.90;;;7.80;99.90;;;;;;4935453;29;20212;-66
2021/04/26 08:46:09;;;;;;;6.15;1.38;;;7.80;99.90;;;;;;4936128;29;20272;-68
2021/04/26 08:48:37;;;;;;;1.02;0.68;;;7.90;99.90;;;;;;4935969;29;20209;-69
2021/04/26 08:51:06;;;;;;;1.98;0.80;;;8.10;99.90;;;;;;4932859;29;20599;-68
2021/04/26 08:53:33;;;;;;;4.03;0.90;;;8.30;99.90;;;;;;4917174;29;20192;-68
2021/04/26 08:56:01;;;;;;;1.83;0.60;;;8.80;99.90;;;;;;4916390;29;20203;-71
2021/04/26 08:58:29;;;;;;;2.60;0.70;;;9.40;99.90;;;;;;4915819;29;20224;-66
2021/04/26 09:00:56;;;;;;;1.30;0.60;;;9.00;99.90;;;;;;4916809;29;20613;-68
2021/04/26 09:03:31;;;;;;;1.10;0.80;;;8.70;99.90;;;;;;4916954;29;20193;-70
2021/04/26 09:05:58;;;;;;;1.60;0.95;;;8.70;99.90;;;;;;4917047;29;20197;-66
2021/04/26 09:08:28;;;;;;;1.10;0.60;;;9.20;99.90;;;;;;4916875;29;20220;-65
2021/04/26 09:11:01;;;;;;;1.90;0.90;;;9.40;99.90;;;;;;4916554;29;20193;-69
2021/04/26 09:13:32;;;;;;;1.95;0.80;;;9.30;99.90;;;;;;4917239;29;20181;-68
2021/04/26 09:16:02;;;;;;;2.20;0.90;;;9.30;99.90;;;;;;4916713;29;20237;-70
2021/04/26 09:18:48;;;;;;;0.95;0.68;;;9.10;99.90;;;;;;4916744;29;20214;-65
2021/04/26 09:21:23;;;;;;;1.30;1.05;;;9.10;99.90;;;;;;4917032;29;20189;-66
2021/04/26 09:24:16;;;;;;;2.47;1.05;;;9.20;99.90;;;;;;4916777;29;20558;-66
2021/04/26 09:26:45;;;;;;;1.00;0.60;;;9.50;99.90;;;;;;4916989;29;20555;-67
2021/04/26 09:29:19;;;;;;;1.75;0.90;;;9.80;99.90;;;;;;4916608;29;20213;-66
2021/04/26 09:32:08;;;;;;;1.15;0.93;;;9.90;99.90;;;;;;4916326;29;20561;-66
2021/04/26 09:34:40;;;;;;;1.00;0.80;;;9.50;99.90;;;;;;4918080;29;20198;-66
2021/04/26 09:37:17;;;;;;;6.78;6.05;;;9.60;99.90;;;;;;4919273;29;20386;-70
2021/04/26 09:40:01;;;;;;;3.65;3.35;;;9.90;99.90;;;;;;4928320;29;20211;-70
2021/04/26 09:42:42;;;;;;;1.35;1.13;;;10.10;99.90;;;;;;4934913;29;20188;-66
2021/04/26 09:45:31;;;;;;;1.00;0.80;;;9.70;99.90;;;;;;4936038;29;20666;-66
2021/04/26 09:48:09;;;;;;;5.88;4.35;;;9.30;99.90;;;;;;4938125;29;20280;-67
2021/04/26 09:50:54;;;;;;;1.20;0.90;;;9.50;99.90;;;;;;4935624;29;20196;-66
2021/04/26 09:53:21;;;;;;;1.80;1.10;;;10.00;99.90;;;;;;4934258;29;20193;-66
2021/04/26 09:55:50;;;;;;;1.10;0.73;;;10.20;99.90;;;;;;4935421;29;20197;-67
2021/04/26 09:58:18;;;;;;;1.52;1.10;;;9.90;99.90;;;;;;4935859;29;20219;-66
2021/04/26 10:00:46;;;;;;;2.28;0.70;;;9.90;99.90;;;;;;4935744;29;20201;-67
2021/04/26 10:03:55;;;;;;;1.55;0.70;;;10.20;99.90;;;;;;5088982;27;20577;-67
2021/04/26 10:06:25;;;;;;;1.20;1.08;;;10.00;99.90;;;;;;5089310;28;20478;-66
2021/04/26 10:08:56;;;;;;;1.33;0.70;;;9.70;99.90;;;;;;5089313;28;20207;-67
2021/04/26 10:11:26;;;;;;;2.78;0.80;;;9.30;99.90;;;;;;5089022;28;20191;-66
2021/04/26 10:14:01;;;;;;;0.98;0.68;;;9.30;99.90;;;;;;5087564;28;20570;-67
2021/04/26 10:16:39;;;;;;;2.05;0.80;;;9.10;99.90;;;;;;5088907;28;20709;-67
2021/04/26 10:19:09;;;;;;;1.65;1.13;;;9.20;99.90;;;;;;5088702;28;20286;-68
2021/04/26 10:21:37;;;;;;;5.10;1.15;;;9.40;99.90;;;;;;5088417;28;20179;-66
2021/04/26 10:24:18;;;;;;;1.90;1.23;;;9.50;99.90;;;;;;5088779;28;20262;-66
2021/04/26 10:26:50;;;;;;;0.90;0.60;;;9.10;99.90;;;;;;5088782;28;20187;-67
2021/04/26 10:29:25;;;;;;;1.50;0.93;;;9.10;99.90;;;;;;5088726;28;20221;-66
2021/04/26 10:32:09;;;;;;;1.08;0.88;;;9.40;99.90;;;;;;5088400;28;20186;-67
2021/04/26 10:35:09;;;;;;;3.80;1.25;;;9.70;99.90;;;;;;5083117;28;20222;-67
2021/04/26 10:37:39;;;;;;;1.02;0.73;;;9.60;99.90;;;;;;5074545;28;20695;-66
2021/04/26 10:40:14;;;;;;;1.65;1.23;;;9.60;99.90;;;;;;5075322;28;20223;-66
2021/04/26 10:42:44;;;;;;;1.52;0.60;;;9.60;99.90;;;;;;5077535;28;20740;-67
2021/04/26 10:45:25;;;;;;;1.95;0.88;;;9.60;99.90;;;;;;5088704;28;20240;-67
2021/04/26 10:48:10;;;;;;;1.00;0.70;;;9.60;99.90;;;;;;5088524;28;20729;-66
2021/04/26 10:50:49;;;;;;;1.48;0.90;;;9.50;99.90;;;;;;5084407;28;20183;-67
2021/04/26 10:53:18;;;;;;;1.40;0.80;;;9.60;99.90;;;;;;5073295;28;20183;-68
2021/04/26 10:56:05;;;;;;;0.90;0.50;;;9.90;99.90;;;;;;5089591;28;20258;-66
2021/04/26 10:58:40;;;;;;;2.47;1.08;;;9.90;99.90;;;;;;5088780;28;20207;-68
2021/04/26 11:01:16;;;;;;;1.73;0.85;;;9.90;99.90;;;;;;5088367;28;20218;-68
2021/04/26 11:03:45;;;;;;;1.50;0.77;;;10.30;99.90;;;;;;5087785;28;20314;-66
2021/04/26 11:06:30;;;;;;;3.72;0.95;;;10.70;99.90;;;;;;5089160;28;20238;-66
2021/04/26 11:14:29;;;;;;;1.05;0.75;;;11.00;99.90;;;;;;5078945;28;20180;-67
2021/04/26 11:17:08;;;;;;;1.23;0.70;;;10.30;99.90;;;;;;5074700;28;20457;-66
2021/04/26 11:20:11;;;;;;;0.90;0.73;;;10.40;99.90;;;;;;5074266;28;20183;-67
2021/04/26 11:22:40;;;;;;;2.05;0.93;;;10.80;99.90;;;;;;5000181;28;20249;-66
2021/04/26 11:25:09;;;;;;;1.25;0.68;;;10.70;99.90;;;;;;5011919;28;20198;-67
2021/04/26 11:27:40;;;;;;;2.55;0.93;;;10.40;99.90;;;;;;5042355;28;20224;-67
2021/04/26 11:30:19;;;;;;;1.20;0.80;;;10.20;99.90;;;;;;5073930;28;20192;-69
2021/04/26 11:33:08;;;;;;;2.35;0.73;;;9.90;99.90;;;;;;5062669;28;20288;-68
2021/04/26 11:35:57;;;;;;;2.92;1.00;;;9.90;99.90;;;;;;5056324;28;20188;-68
2021/04/26 11:38:25;;;;;;;2.15;1.08;;;10.00;99.90;;;;;;5065637;28;20212;-68
2021/04/26 11:40:53;;;;;;;1.10;0.90;;;9.90;99.90;;;;;;5053716;28;20313;-66
2021/04/26 11:43:20;;;;;;;0.80;0.50;;;9.90;99.90;;;;;;5053578;28;20212;-67
2021/04/26 11:45:48;;;;;;;5.13;0.80;;;10.00;99.90;;;;;;5054131;28;20185;-69
2021/04/26 11:48:23;;;;;;;1.17;0.73;;;10.10;99.90;;;;;;5053818;28;20235;-66
2021/04/26 11:50:50;;;;;;;1.10;0.70;;;10.10;99.90;;;;;;5058868;28;20694;-66
2021/04/26 11:53:26;;;;;;;2.55;1.13;;;10.10;99.90;;;;;;5073154;28;20207;-70
2021/04/26 11:55:54;;;;;;;1.38;0.80;;;10.10;99.90;;;;;;5073456;28;20258;-67
2021/04/26 11:58:25;;;;;;;2.90;1.10;;;10.00;99.90;;;;;;5073093;28;20212;-66
2021/04/26 12:01:04;;;;;;;2.13;1.10;;;10.00;99.90;;;;;;5073259;28;20185;-67
2021/04/26 12:03:32;;;;;;;1.05;0.60;;;10.10;99.90;;;;;;5072766;28;20706;-67
2021/04/26 12:06:02;;;;;;;1.40;0.70;;;10.20;99.90;;;;;;5073029;28;20188;-67
2021/04/26 12:08:44;;;;;;;1.00;0.70;;;10.10;99.90;;;;;;5073348;28;20218;-67
2021/04/26 12:11:16;;;;;;;1.10;0.70;;;9.90;99.90;;;;;;5073007;28;20585;-67
2021/04/26 12:13:43;;;;;;;1.40;0.77;;;9.90;99.90;;;;;;5072754;28;20259;-67
2021/04/26 12:16:24;;;;;;;2.28;1.30;;;10.00;99.90;;;;;;5073260;28;20212;-71
2021/04/26 12:18:59;;;;;;;1.60;0.90;;;9.90;99.90;;;;;;5078586;28;20216;-68
2021/04/26 12:21:27;;;;;;;2.08;1.08;;;9.90;99.90;;;;;;5078771;28;20270;-65
2021/04/26 12:23:55;;;;;;;1.55;0.73;;;10.10;99.90;;;;;;5075319;28;20527;-69
2021/04/26 12:26:23;;;;;;;1.30;0.85;;;10.40;99.90;;;;;;5072441;28;20203;-70
2021/04/26 12:28:50;;;;;;;1.20;0.80;;;11.10;99.90;;;;;;5071732;28;20258;-68
2021/04/26 12:31:23;;;;;;;3.63;0.80;;;11.50;99.90;;;;;;5074651;28;20179;-68
2021/04/26 12:33:51;;;;;;;2.47;1.33;;;11.30;99.90;;;;;;5072233;28;20165;-69
2021/04/26 12:36:20;;;;;;;1.10;0.80;;;11.00;99.90;;;;;;5072269;28;20422;-69
2021/04/26 12:38:50;;;;;;;1.98;1.23;;;11.30;99.90;;;;;;5072149;28;20208;-68
2021/04/26 12:41:18;;;;;;;1.50;0.63;;;11.50;99.90;;;;;;5072623;28;20192;-69
2021/04/26 12:43:53;;;;;;;1.35;0.80;;;11.40;99.90;;;;;;5072530;28;20215;-70
2021/04/26 12:46:21;;;;;;;1.75;0.95;;;11.10;99.90;;;;;;5072499;28;20183;-68
2021/04/26 12:48:51;;;;;;;1.55;1.20;;;10.50;99.90;;;;;;5072466;28;20231;-69
2021/04/26 12:51:29;;;;;;;1.10;0.73;;;10.50;99.90;;;;;;5063508;28;20189;-70
2021/04/26 12:54:09;;;;;;;0.90;0.50;;;10.40;99.90;;;;;;5052297;28;20172;-69
2021/04/26 12:56:38;;;;;;;0.90;0.60;;;10.10;99.90;;;;;;5053773;28;20177;-70
2021/04/26 12:59:05;;;;;;;2.03;1.15;;;10.10;99.90;;;;;;5052279;28;20208;-68
2021/04/26 13:01:32;;;;;;;1.23;0.80;;;10.30;99.90;;;;;;5052433;28;20192;-70
2021/04/26 13:04:00;;;;;;;2.38;0.70;;;10.60;99.90;;;;;;5050971;28;20211;-68
2021/04/26 13:06:29;;;;;;;2.20;1.00;;;10.80;99.90;;;;;;5063128;28;20215;-68
2021/04/26 13:08:59;;;;;;;2.38;0.73;;;10.80;99.90;;;;;;5067182;28;20576;-69
2021/04/26 13:11:34;;;;;;;2.28;1.27;;;10.50;99.90;;;;;;5064740;28;20191;-68
2021/04/26 13:14:34;;;;;;;2.92;1.60;;;10.40;99.90;;;;;;5074259;28;20211;-69
2021/04/26 13:17:12;;;;;;;1.50;1.10;;;10.40;99.90;;;;;;5051649;28;20199;-67
2021/04/26 13:19:57;;;;;;;1.15;0.82;;;10.10;99.90;;;;;;5055704;28;20184;-68
2021/04/26 13:22:34;;;;;;;1.80;1.15;;;10.30;99.90;;;;;;5052622;28;20236;-69
2021/04/26 13:25:16;;;;;;;1.25;1.15;;;10.70;99.90;;;;;;5055978;28;20181;-67
2021/04/26 13:27:51;;;;;;;1.00;0.70;;;10.70;99.90;;;;;;5052511;28;20200;-69